sensor_id;sensor_type;location;lat;lon;timestamp;P1;durP1;ratioP1;P2;durP2;ratioP2
80338;SDS011;69655;44.498;0.166;2024-03-23T01:00:30;9.83;;;3.53;;
80338;SDS011;69655;44.498;0.166;2024-03-23T01:16:03;7.60;;;3.50;;
80338;SDS011;69655;44.498;0.166;2024-03-23T01:31:36;11.23;;;4.27;;
80338;SDS011;69655;44.498;0.166;2024-03-23T01:47:09;6.97;;;3.60;;
80338;SDS011;69655;44.498;0.166;2024-03-23T02:02:42;12.57;;;4.47;;
80338;SDS011;69655;44.498;0.166;2024-03-23T02:18:14;10.27;;;4.17;;
80338;SDS011;69655;44.498;0.166;2024-03-23T02:33:49;9.80;;;4.50;;
80338;SDS011;69655;44.498;0.166;2024-03-23T02:49:22;13.47;;;4.20;;
80338;SDS011;69655;44.498;0.166;2024-03-23T03:04:54;9.53;;;4.60;;
80338;SDS011;69655;44.498;0.166;2024-03-23T03:35:59;6.57;;;2.10;;
80338;SDS011;69655;44.498;0.166;2024-03-23T03:51:32;4.73;;;1.60;;
80338;SDS011;69655;44.498;0.166;2024-03-23T04:07:04;6.17;;;1.90;;
80338;SDS011;69655;44.498;0.166;2024-03-23T04:22:37;6.83;;;1.53;;
80338;SDS011;69655;44.498;0.166;2024-03-23T04:38:09;8.03;;;1.80;;
80338;SDS011;69655;44.498;0.166;2024-03-23T04:53:42;8.13;;;1.63;;
80338;SDS011;69655;44.498;0.166;2024-03-23T05:09:15;9.13;;;1.63;;
80338;SDS011;69655;44.498;0.166;2024-03-23T05:24:47;14.70;;;2.70;;
80338;SDS011;69655;44.498;0.166;2024-03-23T05:40:18;9.20;;;1.93;;
80338;SDS011;69655;44.498;0.166;2024-03-23T05:55:51;8.73;;;2.23;;
80338;SDS011;69655;44.498;0.166;2024-03-23T06:11:25;10.57;;;2.60;;
80338;SDS011;69655;44.498;0.166;2024-03-23T06:26:58;7.63;;;1.70;;
80338;SDS011;69655;44.498;0.166;2024-03-23T06:42:30;13.50;;;2.97;;
80338;SDS011;69655;44.498;0.166;2024-03-23T06:58:04;10.23;;;2.00;;
80338;SDS011;69655;44.498;0.166;2024-03-23T07:13:38;8.33;;;2.00;;
80338;SDS011;69655;44.498;0.166;2024-03-23T07:29:12;8.40;;;1.87;;
80338;SDS011;69655;44.498;0.166;2024-03-23T07:44:47;11.00;;;2.77;;
80338;SDS011;69655;44.498;0.166;2024-03-23T08:00:21;10.87;;;2.30;;
80338;SDS011;69655;44.498;0.166;2024-03-23T08:15:56;13.43;;;2.23;;
80338;SDS011;69655;44.498;0.166;2024-03-23T08:31:30;8.60;;;1.87;;
80338;SDS011;69655;44.498;0.166;2024-03-23T08:47:03;10.37;;;2.40;;
80338;SDS011;69655;44.498;0.166;2024-03-23T09:02:37;9.00;;;1.90;;
80338;SDS011;69655;44.498;0.166;2024-03-23T09:18:11;9.70;;;2.10;;
80338;SDS011;69655;44.498;0.166;2024-03-23T09:33:43;6.20;;;1.70;;
80338;SDS011;69655;44.498;0.166;2024-03-23T09:49:16;9.33;;;1.70;;
80338;SDS011;69655;44.498;0.166;2024-03-23T10:04:49;7.93;;;2.10;;
80338;SDS011;69655;44.498;0.166;2024-03-23T10:20:21;8.03;;;2.00;;
80338;SDS011;69655;44.498;0.166;2024-03-23T10:35:55;8.53;;;1.70;;
80338;SDS011;69655;44.498;0.166;2024-03-23T10:51:28;5.57;;;2.27;;
80338;SDS011;69655;44.498;0.166;2024-03-23T11:07:01;9.27;;;1.77;;
80338;SDS011;69655;44.498;0.166;2024-03-23T11:22:38;6.93;;;2.00;;
80338;SDS011;69655;44.498;0.166;2024-03-23T11:38:08;8.83;;;2.00;;
80338;SDS011;69655;44.498;0.166;2024-03-23T11:53:40;7.43;;;1.47;;
80338;SDS011;69655;44.498;0.166;2024-03-23T12:09:13;6.77;;;1.70;;
80338;SDS011;69655;44.498;0.166;2024-03-23T12:24:46;7.27;;;1.77;;
80338;SDS011;69655;44.498;0.166;2024-03-23T12:40:18;7.53;;;1.63;;
80338;SDS011;69655;44.498;0.166;2024-03-23T12:55:51;7.43;;;1.63;;
80338;SDS011;69655;44.498;0.166;2024-03-23T13:11:25;10.83;;;1.93;;
80338;SDS011;69655;44.498;0.166;2024-03-23T13:26:59;8.73;;;1.87;;
80338;SDS011;69655;44.498;0.166;2024-03-23T13:42:30;9.03;;;1.90;;
80338;SDS011;69655;44.498;0.166;2024-03-23T13:58:05;7.37;;;1.70;;
80338;SDS011;69655;44.498;0.166;2024-03-23T14:13:39;7.87;;;2.17;;
80338;SDS011;69655;44.498;0.166;2024-03-23T14:29:12;8.20;;;1.87;;
80338;SDS011;69655;44.498;0.166;2024-03-23T14:44:46;7.97;;;1.93;;
80338;SDS011;69655;44.498;0.166;2024-03-23T15:00:20;4.50;;;1.30;;
80338;SDS011;69655;44.498;0.166;2024-03-23T15:15:54;8.03;;;1.60;;
80338;SDS011;69655;44.498;0.166;2024-03-23T15:31:25;5.87;;;1.40;;
80338;SDS011;69655;44.498;0.166;2024-03-23T15:46:58;7.20;;;2.30;;
80338;SDS011;69655;44.498;0.166;2024-03-23T16:02:32;6.73;;;1.60;;
80338;SDS011;69655;44.498;0.166;2024-03-23T16:18:04;6.37;;;1.40;;
80338;SDS011;69655;44.498;0.166;2024-03-23T16:33:35;5.93;;;1.27;;
80338;SDS011;69655;44.498;0.166;2024-03-23T16:49:08;3.60;;;1.17;;
80338;SDS011;69655;44.498;0.166;2024-03-23T17:04:40;8.27;;;1.37;;
80338;SDS011;69655;44.498;0.166;2024-03-23T17:20:12;5.90;;;1.20;;
80338;SDS011;69655;44.498;0.166;2024-03-23T17:35:45;12.17;;;1.77;;
80338;SDS011;69655;44.498;0.166;2024-03-23T17:51:17;8.77;;;1.80;;
80338;SDS011;69655;44.498;0.166;2024-03-23T18:06:49;6.77;;;1.30;;
80338;SDS011;69655;44.498;0.166;2024-03-23T18:22:22;8.20;;;1.10;;
80338;SDS011;69655;44.498;0.166;2024-03-23T18:37:56;5.87;;;1.77;;
80338;SDS011;69655;44.498;0.166;2024-03-23T18:53:29;8.27;;;2.00;;
80338;SDS011;69655;44.498;0.166;2024-03-23T19:09:03;12.67;;;1.80;;
80338;SDS011;69655;44.498;0.166;2024-03-23T19:24:37;8.17;;;1.60;;
80338;SDS011;69655;44.498;0.166;2024-03-23T19:40:11;6.13;;;1.63;;
80338;SDS011;69655;44.498;0.166;2024-03-23T19:55:42;10.43;;;2.17;;
80338;SDS011;69655;44.498;0.166;2024-03-23T20:11:15;9.00;;;2.50;;
80338;SDS011;69655;44.498;0.166;2024-03-23T20:26:48;6.17;;;1.37;;
80338;SDS011;69655;44.498;0.166;2024-03-23T20:42:21;10.60;;;1.70;;
80338;SDS011;69655;44.498;0.166;2024-03-23T20:57:57;6.80;;;1.57;;
80338;SDS011;69655;44.498;0.166;2024-03-23T21:13:31;7.33;;;1.60;;
80338;SDS011;69655;44.498;0.166;2024-03-23T21:29:05;6.37;;;1.50;;
80338;SDS011;69655;44.498;0.166;2024-03-23T21:44:39;9.97;;;1.93;;
80338;SDS011;69655;44.498;0.166;2024-03-23T22:00:12;6.37;;;1.40;;
80338;SDS011;69655;44.498;0.166;2024-03-23T22:15:45;11.20;;;1.83;;
80338;SDS011;69655;44.498;0.166;2024-03-23T22:31:18;9.93;;;1.87;;
80338;SDS011;69655;44.498;0.166;2024-03-23T22:46:50;9.87;;;1.47;;
80338;SDS011;69655;44.498;0.166;2024-03-23T23:02:23;8.40;;;1.30;;
80338;SDS011;69655;44.498;0.166;2024-03-23T23:17:57;8.37;;;1.93;;
80338;SDS011;69655;44.498;0.166;2024-03-23T23:33:29;5.97;;;1.20;;
80338;SDS011;69655;44.498;0.166;2024-03-23T23:49:02;9.17;;;1.70;;
